Time;durP1;ratioP1;P1;durP2;ratioP2;P2;SDS_P1;SDS_P2;PMS_P1;PMS_P2;Temp;Humidity;BMP_temperature;BMP_pressure;BME280_temperature;BME280_humidity;BME280_pressure;Samples;Min_cycle;Max_cycle;Signal;HPM_P1;HPM_P2
2021/01/17 00:00:29;;;;;;;1.98;1.02;;;21.40;49.40;;;;;;4979724;28;20041;-69
2021/01/17 00:02:55;;;;;;;2.65;1.08;;;21.40;49.50;;;;;;4978074;28;20045;-69
2021/01/17 00:05:23;;;;;;;2.22;1.20;;;21.40;49.50;;;;;;4980747;28;20034;-69
2021/01/17 00:07:49;;;;;;;3.03;1.10;;;21.40;49.50;;;;;;4972358;28;20106;-69
2021/01/17 00:10:22;;;;;;;1.85;1.02;;;21.30;49.50;;;;;;4977327;28;20108;-69
2021/01/17 00:12:50;;;;;;;2.05;1.27;;;21.30;49.50;;;;;;4980885;28;20501;-69
2021/01/17 00:15:18;;;;;;;1.50;1.13;;;21.30;49.60;;;;;;4997642;28;20049;-69
2021/01/17 00:17:46;;;;;;;2.35;1.15;;;21.30;49.60;;;;;;4974263;28;20034;-69
2021/01/17 00:20:17;;;;;;;2.03;1.30;;;21.30;49.60;;;;;;4982656;28;20141;-69
2021/01/17 00:22:44;;;;;;;1.48;1.02;;;21.30;49.60;;;;;;4998596;28;20038;-69
2021/01/17 00:25:15;;;;;;;1.65;1.10;;;21.30;49.60;;;;;;4980116;28;20390;-69
2021/01/17 00:27:41;;;;;;;1.85;1.10;;;21.20;49.60;;;;;;4973332;28;20034;-69
2021/01/17 00:30:08;;;;;;;1.63;1.08;;;21.20;49.60;;;;;;4981917;28;20030;-69
2021/01/17 00:32:35;;;;;;;2.47;1.20;;;21.20;49.60;;;;;;4983511;28;20023;-69
2021/01/17 00:35:01;;;;;;;2.25;1.35;;;21.20;49.70;;;;;;4986090;28;20133;-69
2021/01/17 00:37:28;;;;;;;2.78;1.10;;;21.20;49.70;;;;;;4988230;28;20362;-69
2021/01/17 00:39:54;;;;;;;1.83;1.00;;;21.20;49.70;;;;;;4985982;28;20077;-69
2021/01/17 00:42:19;;;;;;;1.80;1.00;;;21.20;49.70;;;;;;4979348;28;20030;-69
2021/01/17 00:44:45;;;;;;;2.67;0.85;;;21.10;49.70;;;;;;4978770;28;20026;-69
2021/01/17 00:47:12;;;;;;;1.77;1.00;;;21.10;49.70;;;;;;4980227;28;20033;-69
2021/01/17 00:49:37;;;;;;;2.20;1.27;;;21.10;49.70;;;;;;4980973;28;20030;-69
2021/01/17 00:52:03;;;;;;;2.85;1.13;;;21.10;49.70;;;;;;4984417;28;20030;-69
2021/01/17 00:54:29;;;;;;;2.10;1.05;;;21.10;49.70;;;;;;4984951;28;20038;-69
2021/01/17 00:56:54;;;;;;;1.38;1.00;;;21.10;49.80;;;;;;4985331;28;20030;-69
2021/01/17 00:59:20;;;;;;;1.83;1.10;;;21.00;49.70;;;;;;4984248;28;20531;-69
2021/01/17 01:01:47;;;;;;;2.05;1.00;;;21.00;49.80;;;;;;4983814;28;20140;-69
2021/01/17 01:04:14;;;;;;;2.00;1.00;;;21.10;49.80;;;;;;4982098;28;20080;-69
2021/01/17 01:06:40;;;;;;;1.90;1.00;;;21.10;49.80;;;;;;4985068;28;20027;-69
2021/01/17 01:09:07;;;;;;;1.70;1.00;;;21.00;49.80;;;;;;4984887;28;20029;-69
2021/01/17 01:11:33;;;;;;;1.73;1.10;;;21.00;49.80;;;;;;4984652;28;20038;-69
2021/01/17 01:13:59;;;;;;;1.75;1.00;;;21.00;49.80;;;;;;4984273;28;20030;-69
2021/01/17 01:16:24;;;;;;;1.45;1.10;;;21.00;49.80;;;;;;4985013;28;20097;-68
2021/01/17 01:18:50;;;;;;;2.40;1.17;;;21.00;49.80;;;;;;4983911;28;20158;-69
2021/01/17 01:21:30;;;;;;;2.25;1.00;;;20.90;49.80;;;;;;4984139;28;20362;-69
2021/01/17 01:23:57;;;;;;;1.70;1.00;;;21.00;49.90;;;;;;4982057;28;20512;-69
2021/01/17 01:26:23;;;;;;;2.28;1.20;;;20.90;49.80;;;;;;4982227;28;20422;-69
2021/01/17 01:28:50;;;;;;;1.90;1.02;;;20.90;49.90;;;;;;4984148;28;20023;-69
2021/01/17 01:31:23;;;;;;;1.88;1.10;;;20.90;49.90;;;;;;4983808;28;20088;-69
2021/01/17 01:33:49;;;;;;;1.52;1.10;;;20.90;49.90;;;;;;4983081;28;20113;-69
2021/01/17 01:36:19;;;;;;;1.63;1.02;;;20.90;49.90;;;;;;4983193;28;20061;-69
2021/01/17 01:38:45;;;;;;;3.22;1.10;;;20.80;49.80;;;;;;4985072;28;20093;-69
2021/01/17 01:41:11;;;;;;;1.95;1.05;;;20.90;49.90;;;;;;4968405;28;20038;-69
2021/01/17 01:43:37;;;;;;;1.40;1.00;;;20.80;49.80;;;;;;4984873;28;20019;-69
2021/01/17 01:46:03;;;;;;;2.00;1.10;;;20.80;49.80;;;;;;4979799;28;20042;-69
2021/01/17 01:48:34;;;;;;;2.28;1.20;;;20.80;49.90;;;;;;4981346;28;20642;-68
2021/01/17 01:51:02;;;;;;;1.50;1.00;;;20.80;49.80;;;;;;4981818;28;20357;-68
2021/01/17 01:53:29;;;;;;;1.35;0.98;;;20.80;49.90;;;;;;4983935;28;20506;-69
2021/01/17 01:55:57;;;;;;;1.48;0.98;;;20.80;49.90;;;;;;4982556;28;20030;-69
2021/01/17 01:58:23;;;;;;;1.50;1.00;;;20.70;50.40;;;;;;4981703;28;20116;-69
2021/01/17 02:00:50;;;;;;;1.55;1.10;;;20.80;49.90;;;;;;4972616;28;20042;-68
2021/01/17 02:03:16;;;;;;;1.90;0.93;;;20.70;49.80;;;;;;4967295;28;20394;-69
2021/01/17 02:05:45;;;;;;;1.55;0.90;;;20.70;49.80;;;;;;4983734;28;20236;-69
2021/01/17 02:08:59;;;;;;;2.00;1.10;;;20.70;49.80;;;;;;4981946;28;20046;-69
2021/01/17 02:11:43;;;;;;;1.58;1.20;;;20.70;49.80;;;;;;4956057;28;20537;-69
2021/01/17 02:14:21;;;;;;;3.28;1.20;;;20.70;49.80;;;;;;4971567;28;20027;-69
2021/01/17 02:16:48;;;;;;;2.22;1.20;;;20.70;49.80;;;;;;4982098;28;20038;-69
2021/01/17 02:19:19;;;;;;;1.65;1.02;;;20.70;49.80;;;;;;4969932;28;20458;-68
2021/01/17 02:21:56;;;;;;;1.30;1.00;;;20.70;49.80;;;;;;4967050;28;20054;-69
2021/01/17 02:24:33;;;;;;;2.38;1.17;;;20.70;49.80;;;;;;4978329;28;20038;-69
2021/01/17 02:27:00;;;;;;;1.25;0.85;;;20.70;49.80;;;;;;4979687;28;20435;-69
2021/01/17 02:29:28;;;;;;;1.58;0.93;;;20.60;49.80;;;;;;4981859;28;20256;-69
2021/01/17 02:32:00;;;;;;;1.38;0.95;;;20.60;49.70;;;;;;4966919;28;20035;-69
2021/01/17 02:34:28;;;;;;;1.40;1.00;;;20.60;49.80;;;;;;4966374;28;20034;-69
2021/01/17 02:37:06;;;;;;;1.10;0.80;;;20.60;49.80;;;;;;4992832;28;20037;-69
2021/01/17 02:39:53;;;;;;;1.50;0.95;;;20.60;49.70;;;;;;4972095;28;20479;-69
2021/01/17 02:42:18;;;;;;;1.60;1.00;;;20.60;49.80;;;;;;4977485;28;20133;-69
2021/01/17 02:44:46;;;;;;;1.52;0.90;;;20.60;49.70;;;;;;4986351;28;20125;-69
2021/01/17 02:47:11;;;;;;;1.60;0.90;;;20.60;49.70;;;;;;4986387;28;20034;-69
2021/01/17 02:49:37;;;;;;;1.90;0.98;;;20.60;49.80;;;;;;4980252;28;20398;-69
2021/01/17 02:52:06;;;;;;;1.60;1.05;;;20.60;49.70;;;;;;4982581;28;20014;-69
2021/01/17 02:54:39;;;;;;;1.38;1.00;;;20.60;49.80;;;;;;4988160;28;20095;-69
2021/01/17 02:57:07;;;;;;;1.23;0.80;;;20.50;49.70;;;;;;4988225;28;20270;-69
2021/01/17 03:00:04;;;;;;;1.27;0.90;;;20.50;49.70;;;;;;4982367;28;20022;-68
2021/01/17 03:02:33;;;;;;;0.90;0.70;;;20.50;49.70;;;;;;5002996;28;20334;-69
2021/01/17 03:05:05;;;;;;;1.52;0.95;;;20.50;49.70;;;;;;5005581;28;20034;-68
2021/01/17 03:07:35;;;;;;;1.38;0.90;;;20.50;49.70;;;;;;4980010;28;20238;-69
2021/01/17 03:10:09;;;;;;;2.30;1.00;;;20.50;49.70;;;;;;4973069;28;20099;-69
2021/01/17 03:12:35;;;;;;;1.88;1.10;;;20.50;49.70;;;;;;4987559;28;20026;-69
2021/01/17 03:15:04;;;;;;;1.58;1.00;;;20.50;49.70;;;;;;4968389;28;20041;-69
2021/01/17 03:17:29;;;;;;;1.80;1.10;;;20.50;49.70;;;;;;4981713;28;20037;-69
2021/01/17 03:19:55;;;;;;;1.73;1.00;;;20.50;49.70;;;;;;4981402;28;20034;-69
2021/01/17 03:22:21;;;;;;;1.25;0.90;;;20.40;49.60;;;;;;4978227;28;20066;-69
2021/01/17 03:24:46;;;;;;;2.20;1.00;;;20.40;49.70;;;;;;4968605;28;20031;-69
2021/01/17 03:27:12;;;;;;;1.73;1.10;;;20.40;49.70;;;;;;4997169;28;20045;-69
2021/01/17 03:29:37;;;;;;;1.23;0.95;;;20.40;49.70;;;;;;4984366;28;20474;-69
2021/01/17 03:32:03;;;;;;;1.67;0.90;;;20.50;49.70;;;;;;4968394;28;20117;-69
2021/01/17 03:34:29;;;;;;;1.83;0.90;;;20.40;50.20;;;;;;4986991;28;20026;-69
2021/01/17 03:36:55;;;;;;;1.10;0.80;;;20.40;49.70;;;;;;4987679;28;20018;-68
2021/01/17 03:39:20;;;;;;;1.98;1.00;;;20.40;49.70;;;;;;4982907;28;20500;-69
2021/01/17 03:41:46;;;;;;;2.40;1.00;;;20.40;49.60;;;;;;4968031;28;20031;-69
2021/01/17 03:44:12;;;;;;;1.25;0.90;;;20.40;49.60;;;;;;4972683;28;20457;-69
2021/01/17 03:46:37;;;;;;;1.60;1.00;;;20.40;49.70;;;;;;4973094;28;20045;-69
2021/01/17 03:49:03;;;;;;;1.38;0.90;;;20.40;49.70;;;;;;4967469;28;20492;-68
2021/01/17 03:51:28;;;;;;;0.73;0.73;;;20.40;49.70;;;;;;4986655;28;20477;-69
2021/01/17 03:53:54;;;;;;;1.98;1.10;;;20.40;49.70;;;;;;4983525;28;20462;-69
2021/01/17 03:56:20;;;;;;;1.70;0.95;;;20.40;49.70;;;;;;4984320;28;20552;-69
2021/01/17 03:58:45;;;;;;;1.70;1.02;;;20.30;49.70;;;;;;4971406;28;20084;-69
2021/01/17 04:01:11;;;;;;;1.50;0.98;;;20.30;49.70;;;;;;4971953;28;20405;-69
2021/01/17 04:03:37;;;;;;;1.08;0.80;;;20.30;49.70;;;;;;4974379;28;20054;-69
2021/01/17 04:06:03;;;;;;;1.23;0.90;;;20.30;49.70;;;;;;4987052;28;20066;-69
2021/01/17 04:08:28;;;;;;;1.10;0.90;;;20.30;49.80;;;;;;4980756;28;20046;-69
2021/01/17 04:10:54;;;;;;;1.65;1.00;;;20.30;49.80;;;;;;4977623;28;20540;-69
2021/01/17 04:13:19;;;;;;;1.58;0.90;;;20.30;49.80;;;;;;4985904;28;20034;-69
2021/01/17 04:15:45;;;;;;;1.73;1.00;;;20.30;49.80;;;;;;4978729;28;20419;-69
2021/01/17 04:18:11;;;;;;;0.93;0.80;;;20.30;49.80;;;;;;4966776;28;20039;-69
2021/01/17 04:20:37;;;;;;;1.10;0.80;;;20.30;49.90;;;;;;4986163;28;20532;-69
2021/01/17 04:23:06;;;;;;;1.10;0.90;;;20.30;49.90;;;;;;4986942;28;20504;-69
2021/01/17 04:25:32;;;;;;;1.73;1.00;;;20.20;49.90;;;;;;4987031;28;20465;-69
2021/01/17 04:27:58;;;;;;;2.47;0.90;;;20.20;49.90;;;;;;4986801;28;20030;-69
2021/01/17 04:30:29;;;;;;;1.13;0.80;;;20.20;49.90;;;;;;4967621;28;20060;-69
2021/01/17 04:32:55;;;;;;;1.20;0.73;;;20.20;49.90;;;;;;4981858;28;20026;-69
2021/01/17 04:35:21;;;;;;;0.80;0.70;;;20.20;49.90;;;;;;4986252;28;20432;-69
2021/01/17 04:37:47;;;;;;;1.48;1.00;;;20.20;49.90;;;;;;4967918;28;20050;-69
2021/01/17 04:40:13;;;;;;;1.73;0.85;;;20.20;50.00;;;;;;4968943;28;20038;-69
2021/01/17 04:42:41;;;;;;;1.30;1.00;;;20.20;50.00;;;;;;4985304;28;20077;-69
2021/01/17 04:45:09;;;;;;;1.60;0.90;;;20.20;50.00;;;;;;4982021;28;20161;-69
2021/01/17 04:47:38;;;;;;;1.50;0.98;;;20.20;50.10;;;;;;4982370;28;20393;-69
2021/01/17 04:50:07;;;;;;;1.50;1.00;;;20.20;50.00;;;;;;4978268;28;20038;-69
2021/01/17 04:53:06;;;;;;;1.13;0.98;;;20.20;50.00;;;;;;5000417;28;20058;-69
2021/01/17 04:55:35;;;;;;;;;;;20.20;50.00;;;;;;4986140;28;20073;-69
2021/01/17 04:58:13;;;;;;;1.23;0.82;;;20.20;50.00;;;;;;4973999;28;19962;-69
2021/01/17 05:00:47;;;;;;;1.63;0.90;;;20.20;50.00;;;;;;4969309;28;20117;-69
2021/01/17 05:03:51;;;;;;;1.40;0.90;;;20.20;50.00;;;;;;4985125;28;20466;-69
2021/01/17 05:06:29;;;;;;;1.52;1.00;;;20.20;50.00;;;;;;4966645;28;20148;-69
2021/01/17 05:09:02;;;;;;;2.30;1.20;;;20.20;50.00;;;;;;4976446;28;20018;-69
2021/01/17 05:11:40;;;;;;;1.20;0.90;;;20.20;50.00;;;;;;4966193;28;20034;-69
2021/01/17 05:14:13;;;;;;;1.15;0.80;;;20.20;50.00;;;;;;4973337;28;20110;-69
2021/01/17 05:16:41;;;;;;;1.40;0.90;;;20.10;49.90;;;;;;4966569;28;20039;-69
2021/01/17 05:19:14;;;;;;;1.17;0.90;;;20.20;50.00;;;;;;4966445;28;20331;-69
2021/01/17 05:21:47;;;;;;;0.98;0.88;;;20.20;50.00;;;;;;4980037;28;20485;-69
2021/01/17 05:24:15;;;;;;;1.27;0.88;;;20.10;50.00;;;;;;4977441;28;20493;-69
2021/01/17 05:27:00;;;;;;;1.25;0.90;;;20.20;50.00;;;;;;4984257;28;20128;-69
2021/01/17 05:29:28;;;;;;;1.83;0.93;;;20.20;50.00;;;;;;4984476;28;20060;-69
2021/01/17 05:31:59;;;;;;;0.93;0.73;;;20.20;50.00;;;;;;4971652;28;20053;-69
2021/01/17 05:34:26;;;;;;;1.00;0.90;;;20.20;50.00;;;;;;4983441;28;20158;-69
2021/01/17 05:37:12;;;;;;;1.20;0.90;;;20.20;50.00;;;;;;4986160;28;20053;-69
2021/01/17 05:39:54;;;;;;;1.35;1.00;;;20.20;50.00;;;;;;4973629;28;20039;-69
2021/01/17 05:42:23;;;;;;;1.40;0.93;;;20.20;50.00;;;;;;4979947;28;20500;-69
2021/01/17 05:44:49;;;;;;;1.40;0.90;;;20.20;50.00;;;;;;4980390;28;20030;-69
2021/01/17 05:47:20;;;;;;;0.93;0.85;;;20.20;50.00;;;;;;4976072;28;20043;-69
2021/01/17 05:49:51;;;;;;;1.33;1.00;;;20.10;49.90;;;;;;4983894;28;20034;-69
2021/01/17 05:52:18;;;;;;;1.42;0.90;;;20.10;49.90;;;;;;4965847;28;20102;-69
2021/01/17 05:54:49;;;;;;;1.17;0.90;;;20.20;50.00;;;;;;4973108;28;20112;-69
2021/01/17 05:57:25;;;;;;;1.13;0.82;;;20.10;49.90;;;;;;4980489;28;20046;-69
2021/01/17 05:59:51;;;;;;;1.08;0.90;;;20.10;49.90;;;;;;4975782;28;20034;-69
2021/01/17 06:02:23;;;;;;;1.17;0.90;;;20.10;49.90;;;;;;4965572;28;20043;-69
2021/01/17 06:05:02;;;;;;;1.17;0.90;;;20.10;49.90;;;;;;4970348;28;20102;-69
2021/01/17 06:07:32;;;;;;;1.08;0.88;;;20.10;49.90;;;;;;4984092;28;20034;-69
2021/01/17 06:10:00;;;;;;;0.80;0.73;;;20.10;49.80;;;;;;4983995;28;20430;-69
2021/01/17 06:12:36;;;;;;;1.02;0.90;;;20.10;49.80;;;;;;4972057;28;20030;-69
2021/01/17 06:15:07;;;;;;;1.02;0.80;;;20.10;49.90;;;;;;4973533;28;20030;-69
2021/01/17 06:17:35;;;;;;;1.00;0.73;;;20.10;49.80;;;;;;4977410;28;20432;-69
2021/01/17 06:20:10;;;;;;;1.25;0.90;;;20.10;49.80;;;;;;4975151;28;20454;-69
2021/01/17 06:22:37;;;;;;;1.30;0.88;;;20.10;49.80;;;;;;4973773;28;20022;-69
2021/01/17 06:25:06;;;;;;;1.13;0.80;;;20.10;49.80;;;;;;4978060;28;20054;-70
2021/01/17 06:27:32;;;;;;;1.35;0.80;;;20.10;49.80;;;;;;4980716;28;20493;-70
2021/01/17 06:29:58;;;;;;;0.95;0.75;;;20.10;49.80;;;;;;4979570;28;20106;-71
2021/01/17 06:32:29;;;;;;;1.02;0.80;;;20.10;49.90;;;;;;4967746;28;20101;-71
2021/01/17 06:34:57;;;;;;;0.98;0.80;;;20.10;49.80;;;;;;4982066;28;20026;-71
2021/01/17 06:37:25;;;;;;;1.05;0.90;;;20.10;49.80;;;;;;4987061;28;20129;-71
2021/01/17 06:39:53;;;;;;;1.13;0.80;;;20.10;49.80;;;;;;4983761;28;20433;-71
2021/01/17 06:42:20;;;;;;;0.90;0.80;;;20.10;49.80;;;;;;4968942;28;20030;-71
2021/01/17 06:44:47;;;;;;;1.23;0.80;;;20.10;49.80;;;;;;4982919;28;20030;-71
2021/01/17 06:47:18;;;;;;;0.95;0.80;;;20.10;49.80;;;;;;4984056;28;20544;-71
2021/01/17 06:49:45;;;;;;;1.17;0.80;;;20.10;49.80;;;;;;4985837;28;20381;-71
2021/01/17 06:52:11;;;;;;;0.90;0.77;;;20.10;49.80;;;;;;4988318;28;20034;-71
2021/01/17 06:54:45;;;;;;;1.15;0.80;;;20.10;49.80;;;;;;4976317;28;20030;-71
2021/01/17 06:57:11;;;;;;;1.23;0.90;;;20.10;49.80;;;;;;4981412;28;20042;-71
2021/01/17 06:59:42;;;;;;;1.25;0.90;;;20.10;49.80;;;;;;4976675;28;20440;-71
2021/01/17 07:02:13;;;;;;;0.98;0.80;;;20.10;49.80;;;;;;4976282;28;20529;-71
2021/01/17 07:04:53;;;;;;;0.98;0.80;;;20.10;49.70;;;;;;4982228;28;20113;-71
2021/01/17 07:07:47;;;;;;;1.00;0.90;;;20.10;49.70;;;;;;4978465;28;20076;-71
2021/01/17 07:10:12;;;;;;;1.02;0.82;;;20.10;49.80;;;;;;4969981;28;20461;-71
2021/01/17 07:12:54;;;;;;;1.15;0.98;;;20.10;49.70;;;;;;4967169;28;20034;-71
2021/01/17 07:15:34;;;;;;;1.10;0.90;;;20.10;49.70;;;;;;4978705;28;20186;-71
2021/01/17 07:18:01;;;;;;;1.08;0.80;;;20.10;49.70;;;;;;4972911;28;20450;-71
2021/01/17 07:20:30;;;;;;;1.08;0.80;;;20.00;49.60;;;;;;4985438;28;20053;-71
2021/01/17 07:23:00;;;;;;;1.42;0.90;;;20.00;49.60;;;;;;4986111;28;20066;-71
2021/01/17 07:25:30;;;;;;;1.15;0.90;;;20.10;49.70;;;;;;4974720;28;20034;-71
2021/01/17 07:28:08;;;;;;;1.00;0.88;;;20.00;49.70;;;;;;4974761;28;20022;-72
2021/01/17 07:30:59;;;;;;;1.05;0.88;;;20.00;49.70;;;;;;4983944;28;20041;-72
2021/01/17 07:33:27;;;;;;;1.30;0.90;;;20.00;49.60;;;;;;4966058;28;20039;-73
2021/01/17 07:35:58;;;;;;;1.20;0.90;;;20.00;50.20;;;;;;4983481;28;20035;-73
2021/01/17 07:38:26;;;;;;;1.23;0.90;;;20.00;49.60;;;;;;4991499;28;20345;-73
2021/01/17 07:41:04;;;;;;;0.88;0.80;;;20.00;49.60;;;;;;4984400;28;20041;-73
2021/01/17 07:43:32;;;;;;;1.02;0.80;;;20.00;49.60;;;;;;4988083;28;20041;-73
2021/01/17 07:46:00;;;;;;;0.93;0.80;;;20.00;49.60;;;;;;4984937;28;20054;-72
2021/01/17 07:48:26;;;;;;;0.80;0.70;;;20.00;49.60;;;;;;4987381;28;20113;-73
2021/01/17 07:50:54;;;;;;;0.93;0.80;;;20.00;49.60;;;;;;4984735;28;20790;-73
2021/01/17 07:53:38;;;;;;;1.08;0.90;;;20.00;49.60;;;;;;4989473;28;20038;-73
2021/01/17 07:56:16;;;;;;;1.00;0.80;;;20.00;49.60;;;;;;4985583;28;20034;-73
2021/01/17 07:58:42;;;;;;;1.20;0.90;;;20.00;49.70;;;;;;4975087;28;20035;-73
2021/01/17 08:01:30;;;;;;;1.05;0.80;;;20.00;49.60;;;;;;4974884;28;20035;-73
2021/01/17 08:04:01;;;;;;;1.00;0.80;;;20.00;49.60;;;;;;4983793;28;20038;-73
2021/01/17 08:06:36;;;;;;;1.20;0.90;;;20.00;49.60;;;;;;4986331;28;20362;-73
2021/01/17 08:09:08;;;;;;;1.25;0.95;;;20.00;49.60;;;;;;4978272;28;20038;-74
2021/01/17 08:11:57;;;;;;;1.83;1.10;;;20.00;49.50;;;;;;4973234;28;20392;-72
2021/01/17 08:14:24;;;;;;;2.00;1.10;;;20.00;49.50;;;;;;4979085;28;20031;-72
2021/01/17 08:17:10;;;;;;;1.33;0.93;;;20.00;49.40;;;;;;4984302;28;20069;-72
2021/01/17 08:19:53;;;;;;;1.58;1.10;;;20.00;49.40;;;;;;4985978;28;20418;-72
2021/01/17 08:22:22;;;;;;;1.55;1.00;;;20.00;49.40;;;;;;4976892;28;20077;-71
2021/01/17 08:25:06;;;;;;;1.40;0.93;;;20.00;49.40;;;;;;4999541;28;20031;-71
2021/01/17 08:27:45;;;;;;;1.92;0.95;;;20.00;49.40;;;;;;4991800;28;20441;-72
2021/01/17 08:30:19;;;;;;;1.77;1.10;;;20.00;49.40;;;;;;4983982;28;20496;-72
2021/01/17 08:32:48;;;;;;;1.13;0.80;;;20.00;49.40;;;;;;4967432;28;20023;-71
2021/01/17 08:35:19;;;;;;;1.52;1.08;;;20.00;49.40;;;;;;4981784;28;20101;-72
2021/01/17 08:37:46;;;;;;;1.48;0.98;;;20.00;49.50;;;;;;4979097;28;20038;-72
2021/01/17 08:40:39;;;;;;;1.38;0.90;;;20.00;49.50;;;;;;4980392;28;20034;-72
2021/01/17 08:43:15;;;;;;;1.88;1.20;;;20.00;49.50;;;;;;4976759;28;20038;-71
2021/01/17 08:45:50;;;;;;;1.60;1.00;;;20.00;49.50;;;;;;4977809;28;20563;-72
2021/01/17 08:48:15;;;;;;;1.83;0.93;;;20.00;49.50;;;;;;4995819;28;20041;-70
2021/01/17 08:50:41;;;;;;;1.95;1.00;;;20.00;49.50;;;;;;4973506;28;20034;-71
2021/01/17 08:53:12;;;;;;;1.30;0.93;;;20.00;49.50;;;;;;4985611;28;20048;-71
2021/01/17 08:55:49;;;;;;;1.60;1.00;;;20.00;49.50;;;;;;4984126;28;20282;-72
2021/01/17 08:58:37;;;;;;;1.10;0.80;;;20.00;49.50;;;;;;4988278;28;20060;-69
2021/01/17 09:01:04;;;;;;;1.80;1.23;;;20.00;49.50;;;;;;4974188;28;20107;-70
2021/01/17 09:03:32;;;;;;;2.08;0.90;;;20.00;49.50;;;;;;4979589;28;20410;-70
2021/01/17 09:06:02;;;;;;;1.40;0.93;;;20.00;49.50;;;;;;4983438;28;20405;-68
2021/01/17 09:08:29;;;;;;;1.63;0.93;;;20.00;49.50;;;;;;4985123;28;20046;-69
2021/01/17 09:10:55;;;;;;;1.13;0.85;;;20.00;49.50;;;;;;4967660;28;20327;-69
2021/01/17 09:13:29;;;;;;;1.55;1.10;;;20.00;49.50;;;;;;4979292;28;20035;-69
2021/01/17 09:15:58;;;;;;;1.40;0.90;;;20.00;49.50;;;;;;4985432;28;20470;-69
2021/01/17 09:18:28;;;;;;;;;;;19.90;49.50;;;;;;4979682;28;20034;-69
2021/01/17 09:20:55;;;;;;;1.77;1.20;;;19.90;49.50;;;;;;4980132;28;19917;-70
2021/01/17 09:23:22;;;;;;;2.20;1.20;;;20.00;49.50;;;;;;4976794;28;20097;-69
2021/01/17 09:25:54;;;;;;;1.80;1.00;;;19.90;49.50;;;;;;4982556;28;20034;-71
2021/01/17 09:28:20;;;;;;;1.55;1.00;;;19.90;49.50;;;;;;4987015;28;20526;-70
2021/01/17 09:30:49;;;;;;;2.97;1.20;;;20.00;49.60;;;;;;4979066;28;20153;-70
2021/01/17 09:33:16;;;;;;;3.65;1.60;;;19.90;49.50;;;;;;4982472;28;20058;-70
2021/01/17 09:35:43;;;;;;;1.98;1.00;;;19.90;49.60;;;;;;4969609;28;20117;-70
2021/01/17 09:38:21;;;;;;;2.15;1.35;;;20.00;49.60;;;;;;4981433;28;20120;-70
2021/01/17 09:40:52;;;;;;;2.50;1.20;;;19.90;49.60;;;;;;4974624;28;20030;-70
2021/01/17 09:43:17;;;;;;;2.28;1.20;;;19.90;49.60;;;;;;4976655;28;20039;-70
2021/01/17 09:45:51;;;;;;;2.95;1.25;;;19.90;49.60;;;;;;4981321;28;20035;-70
2021/01/17 09:48:20;;;;;;;2.42;1.00;;;19.90;49.70;;;;;;4980500;28;20390;-70
2021/01/17 09:50:46;;;;;;;;;;;19.90;49.70;;;;;;4984191;28;20030;-71
2021/01/17 09:53:12;;;;;;;2.05;1.10;;;19.90;49.70;;;;;;4985388;28;20440;-72
2021/01/17 09:55:40;;;;;;;2.67;1.20;;;19.90;49.70;;;;;;4999775;28;20469;-71
2021/01/17 09:58:10;;;;;;;2.50;1.30;;;19.90;49.70;;;;;;4986815;28;20038;-71
2021/01/17 10:00:37;;;;;;;3.75;1.50;;;19.90;49.70;;;;;;4986349;28;20042;-70
2021/01/17 10:03:09;;;;;;;3.28;1.75;;;19.90;49.70;;;;;;4983209;28;20038;-70
2021/01/17 10:05:36;;;;;;;2.30;1.20;;;19.90;49.80;;;;;;4979219;28;20123;-69
2021/01/17 10:08:03;;;;;;;2.90;1.85;;;19.90;49.70;;;;;;4987607;28;20034;-69
2021/01/17 10:10:29;;;;;;;2.67;1.40;;;19.90;49.80;;;;;;4986079;28;20031;-69
2021/01/17 10:12:55;;;;;;;2.65;1.70;;;19.90;49.80;;;;;;4989165;28;20038;-70
2021/01/17 10:15:21;;;;;;;2.40;1.40;;;19.90;49.80;;;;;;4981339;28;20046;-69
2021/01/17 10:17:47;;;;;;;2.65;1.35;;;19.90;49.80;;;;;;4971564;28;20034;-70
2021/01/17 10:20:38;;;;;;;3.40;1.60;;;19.90;49.70;;;;;;4984850;28;20030;-70
2021/01/17 10:23:16;;;;;;;4.68;1.65;;;19.90;49.70;;;;;;4968765;28;20035;-70
2021/01/17 10:25:45;;;;;;;2.85;1.40;;;19.90;49.70;;;;;;4977441;28;20031;-69
2021/01/17 10:28:11;;;;;;;2.78;1.85;;;19.90;49.70;;;;;;4988957;28;20456;-69
2021/01/17 10:30:41;;;;;;;2.63;1.50;;;19.90;49.70;;;;;;4981338;28;20445;-69
2021/01/17 10:33:11;;;;;;;2.92;1.55;;;19.90;49.70;;;;;;4980716;28;20796;-69
2021/01/17 10:35:42;;;;;;;3.25;1.65;;;19.90;49.70;;;;;;4978942;28;20041;-69
2021/01/17 10:38:08;;;;;;;3.53;1.52;;;19.90;49.70;;;;;;4984445;28;20129;-69
2021/01/17 10:40:35;;;;;;;2.97;1.65;;;19.90;49.80;;;;;;4984824;28;20030;-69
2021/01/17 10:43:04;;;;;;;2.50;1.50;;;19.90;49.80;;;;;;4980447;28;20065;-70
2021/01/17 10:45:31;;;;;;;2.70;1.63;;;19.90;49.80;;;;;;4978863;28;20093;-72
2021/01/17 10:48:14;;;;;;;3.00;1.42;;;19.90;49.80;;;;;;4984014;28;20121;-73
2021/01/17 10:50:51;;;;;;;3.70;1.60;;;19.90;49.90;;;;;;4984370;28;20080;-74
2021/01/17 10:53:46;;;;;;;2.60;1.60;;;19.90;49.90;;;;;;4983207;28;20029;-72
2021/01/17 10:56:16;;;;;;;2.95;1.80;;;19.90;49.90;;;;;;4982015;28;20038;-71
2021/01/17 10:58:43;;;;;;;4.60;1.60;;;19.90;50.00;;;;;;4979378;28;20104;-72
2021/01/17 11:01:08;;;;;;;3.97;2.08;;;19.90;50.10;;;;;;4983343;28;20548;-71
2021/01/17 11:03:35;;;;;;;2.47;1.67;;;19.90;50.10;;;;;;4983199;28;20045;-72
2021/01/17 11:06:10;;;;;;;2.75;1.75;;;19.90;50.20;;;;;;4985211;28;20317;-70
2021/01/17 11:08:44;;;;;;;3.05;1.65;;;19.90;50.30;;;;;;4989554;28;20040;-69
2021/01/17 11:11:11;;;;;;;3.30;2.00;;;19.90;50.40;;;;;;4980359;28;20037;-69
2021/01/17 11:13:37;;;;;;;3.22;1.90;;;19.90;50.50;;;;;;4980960;28;20031;-70
2021/01/17 11:16:03;;;;;;;4.07;1.90;;;19.90;50.60;;;;;;4983041;28;20026;-69
2021/01/17 11:18:31;;;;;;;3.55;1.83;;;19.90;50.70;;;;;;4979593;28;20041;-69
2021/01/17 11:20:59;;;;;;;3.10;1.83;;;20.00;50.80;;;;;;4980864;28;20088;-68
2021/01/17 11:23:26;;;;;;;3.08;1.80;;;19.90;50.80;;;;;;4992752;28;20030;-69
2021/01/17 11:26:03;;;;;;;4.57;1.90;;;20.00;51.00;;;;;;4980347;28;20146;-69
2021/01/17 11:28:30;;;;;;;3.30;1.95;;;20.00;51.20;;;;;;4971530;28;20777;-69
2021/01/17 11:31:15;;;;;;;5.68;2.05;;;20.00;51.20;;;;;;4968796;28;20121;-69
2021/01/17 11:33:42;;;;;;;4.30;2.20;;;20.00;51.30;;;;;;4973122;28;20038;-71
2021/01/17 11:36:08;;;;;;;2.90;1.75;;;20.00;51.40;;;;;;4980085;28;20122;-71
2021/01/17 11:38:59;;;;;;;3.95;2.05;;;20.00;51.30;;;;;;4972459;28;20145;-71
2021/01/17 11:41:37;;;;;;;3.03;2.05;;;19.90;51.30;;;;;;4972160;28;20038;-72
2021/01/17 11:44:18;;;;;;;4.05;1.70;;;19.90;51.30;;;;;;4971450;28;20477;-72
2021/01/17 11:46:44;;;;;;;3.20;1.77;;;19.90;51.40;;;;;;4966278;28;20101;-72
2021/01/17 11:49:11;;;;;;;3.22;2.20;;;19.90;51.40;;;;;;4972967;28;20034;-72
2021/01/17 11:51:37;;;;;;;3.78;2.35;;;19.90;51.30;;;;;;4969692;28;20138;-69
2021/01/17 11:54:13;;;;;;;4.03;1.90;;;19.90;51.20;;;;;;4971789;28;20427;-70
2021/01/17 11:56:39;;;;;;;4.18;1.90;;;19.90;51.10;;;;;;4971803;28;20027;-72
2021/01/17 11:59:05;;;;;;;3.90;1.80;;;19.90;51.00;;;;;;4970638;28;20034;-68
2021/01/17 12:01:31;;;;;;;3.80;1.92;;;19.90;51.00;;;;;;4971074;28;20719;-71
2021/01/17 12:04:05;;;;;;;3.00;1.70;;;19.90;51.00;;;;;;4970714;28;20030;-70
2021/01/17 12:06:32;;;;;;;2.75;1.75;;;19.90;50.90;;;;;;4971713;28;20593;-70
2021/01/17 12:09:03;;;;;;;2.72;1.75;;;19.90;51.00;;;;;;4967434;28;20327;-69
2021/01/17 12:11:35;;;;;;;3.70;2.00;;;19.90;50.90;;;;;;4969712;28;20041;-69
2021/01/17 12:14:08;;;;;;;4.93;1.90;;;19.90;50.90;;;;;;4969626;28;20049;-72
2021/01/17 12:16:42;;;;;;;2.97;1.75;;;19.90;50.90;;;;;;4969210;28;20172;-68
2021/01/17 12:19:09;;;;;;;4.40;1.95;;;19.90;50.90;;;;;;4961777;28;20144;-70
2021/01/17 12:21:35;;;;;;;3.78;1.73;;;19.90;50.90;;;;;;4968475;28;20057;-70
2021/01/17 12:24:03;;;;;;;3.08;1.70;;;19.90;50.80;;;;;;4963984;28;20971;-70
2021/01/17 12:26:28;;;;;;;3.38;1.67;;;19.90;51.10;;;;;;4967710;28;20026;-71
2021/01/17 12:28:55;;;;;;;3.65;1.55;;;20.00;51.30;;;;;;4968209;28;20777;-71
2021/01/17 12:31:22;;;;;;;5.70;2.50;;;20.00;51.10;;;;;;4984242;28;20114;-70
2021/01/17 12:33:48;;;;;;;2.47;1.40;;;20.10;51.40;;;;;;4969462;28;20110;-71
2021/01/17 12:36:17;;;;;;;2.25;1.40;;;20.10;51.10;;;;;;4976536;28;20109;-71
2021/01/17 12:38:43;;;;;;;3.30;1.27;;;20.20;51.80;;;;;;4967281;28;20109;-70
2021/01/17 12:41:11;;;;;;;2.25;1.40;;;20.20;51.30;;;;;;4968405;28;20112;-70
2021/01/17 12:43:42;;;;;;;3.95;1.58;;;20.20;51.30;;;;;;4969818;28;20496;-71
2021/01/17 12:46:09;;;;;;;1.50;1.10;;;20.30;51.40;;;;;;4968424;28;20034;-70
2021/01/17 12:48:36;;;;;;;3.08;1.23;;;20.30;51.30;;;;;;4959787;28;20553;-69
2021/01/17 12:51:02;;;;;;;2.75;1.30;;;20.40;51.40;;;;;;4968343;28;20065;-70
2021/01/17 12:53:28;;;;;;;2.28;1.27;;;20.40;51.20;;;;;;4968063;28;20860;-70
2021/01/17 12:55:55;;;;;;;2.22;1.38;;;20.40;51.20;;;;;;4966862;28;20038;-71
2021/01/17 12:58:20;;;;;;;3.35;1.73;;;20.40;51.20;;;;;;4966427;28;20057;-71
2021/01/17 13:00:46;;;;;;;2.20;1.40;;;20.40;51.80;;;;;;4968153;28;20126;-70
2021/01/17 13:03:12;;;;;;;2.30;1.40;;;20.40;51.40;;;;;;4965663;28;20112;-70